Time;durP1;ratioP1;P1;durP2;ratioP2;P2;SDS_P1;SDS_P2;PMS_P1;PMS_P2;Temp;Humidity;BMP_temperature;BMP_pressure;BME280_temperature;BME280_humidity;BME280_pressure;Samples;Min_cycle;Max_cycle;Signal;HPM_P1;HPM_P2
2023/06/06 00:01:27;;;;;;;2.08;1.70;;;;;;;27.13;34.23;101966.38;5011258;28;99720;-81
2023/06/06 00:03:55;;;;;;;1.58;1.45;;;;;;;27.13;34.19;101960.00;5017276;28;96674;-81
2023/06/06 00:06:24;;;;;;;1.90;1.63;;;;;;;27.13;34.04;101960.00;5015062;28;96993;-81
2023/06/06 00:08:52;;;;;;;1.98;1.48;;;;;;;27.11;34.24;101960.19;5014762;28;99762;-80
2023/06/06 00:11:20;;;;;;;1.65;1.40;;;;;;;27.11;34.19;101960.19;4984679;28;100219;-80
2023/06/06 00:13:49;;;;;;;2.08;1.38;;;;;;;27.11;34.34;101959.34;4985029;28;96984;-80
2023/06/06 00:16:17;;;;;;;1.50;1.40;;;;;;;27.10;34.26;101955.72;5016860;28;96998;-80
2023/06/06 00:18:45;;;;;;;1.98;1.58;;;;;;;27.11;34.22;101967.59;5014644;28;97921;-80
2023/06/06 00:21:12;;;;;;;2.05;1.48;;;;;;;27.11;34.27;101956.56;5016276;28;96907;-81
2023/06/06 00:23:39;;;;;;;1.58;1.35;;;;;;;27.11;34.27;101960.19;5014368;28;96942;-80
2023/06/06 00:26:06;;;;;;;1.48;1.30;;;;;;;27.11;34.37;101967.59;5016934;28;97085;-80
2023/06/06 00:28:33;;;;;;;1.63;1.40;;;;;;;27.10;34.26;101955.72;5015274;28;98253;-80
2023/06/06 00:31:00;;;;;;;1.52;1.42;;;;;;;27.10;34.23;101965.91;5014645;28;96750;-80
2023/06/06 00:33:26;;;;;;;1.90;1.50;;;;;;;27.10;34.35;101965.91;4982794;28;96723;-80
2023/06/06 00:35:53;;;;;;;1.70;1.40;;;;;;;27.09;34.60;101958.66;4998795;28;96866;-80
2023/06/06 00:38:20;;;;;;;1.65;1.40;;;;;;;27.08;34.23;101966.09;4996914;28;96863;-80
2023/06/06 00:40:46;;;;;;;1.65;1.45;;;;;;;27.09;34.33;101964.19;4998407;28;99512;-80
2023/06/06 00:43:13;;;;;;;2.47;1.60;;;;;;;27.08;34.18;101962.47;5029244;28;98041;-80
2023/06/06 00:45:39;;;;;;;1.48;1.20;;;;;;;27.08;34.33;101963.31;5015448;28;96723;-80
2023/06/06 00:48:07;;;;;;;2.00;1.60;;;;;;;27.08;34.24;101968.00;5016157;28;96614;-80
2023/06/06 00:50:36;;;;;;;1.83;1.25;;;;;;;27.08;34.38;101981.78;5017670;28;97265;-80
2023/06/06 00:53:04;;;;;;;1.63;1.50;;;;;;;27.08;34.45;101968.00;5013740;28;97739;-80
2023/06/06 00:55:31;;;;;;;1.52;1.42;;;;;;;27.07;34.08;101967.13;5014934;28;96583;-80
2023/06/06 00:57:59;;;;;;;1.20;1.10;;;;;;;27.07;34.40;101964.38;5014058;28;97571;-80
2023/06/06 01:00:28;;;;;;;1.40;1.30;;;;;;;27.07;34.23;101961.63;5015412;28;97508;-80
2023/06/06 01:02:56;;;;;;;1.30;1.20;;;;;;;27.06;34.03;101962.66;5015751;28;96829;-80
2023/06/06 01:05:23;;;;;;;2.85;1.33;;;;;;;27.06;34.40;101967.31;5014656;28;96849;-80
2023/06/06 01:07:53;;;;;;;1.27;1.17;;;;;;;27.06;34.23;101964.56;5012471;28;99167;-80
2023/06/06 01:10:21;;;;;;;1.70;1.55;;;;;;;27.05;34.46;101963.72;5013812;28;96792;-80
2023/06/06 01:12:58;;;;;;;1.80;1.50;;;;;;;27.05;34.38;101962.84;5013737;28;96750;-80
2023/06/06 01:15:46;;;;;;;1.60;1.50;;;;;;;27.05;34.47;101965.59;5014924;28;97581;-80
2023/06/06 01:18:13;;;;;;;1.58;1.48;;;;;;;27.04;34.57;101969.41;5027020;28;97912;-80
2023/06/06 01:20:41;;;;;;;2.83;1.50;;;;;;;27.03;34.16;101965.81;5016302;28;96797;-80
2023/06/06 01:23:10;;;;;;;2.00;1.40;;;;;;;27.02;34.29;101966.84;5014674;28;97106;-80
2023/06/06 01:25:40;;;;;;;1.65;1.50;;;;;;;27.02;34.43;101963.22;4997062;28;97913;-81
2023/06/06 01:28:13;;;;;;;1.70;1.50;;;;;;;27.02;34.17;101958.56;5013284;28;97590;-80
2023/06/06 01:30:42;;;;;;;1.65;1.40;;;;;;;27.02;34.31;101958.56;4983624;28;98219;-80
2023/06/06 01:33:26;;;;;;;1.58;1.40;;;;;;;27.02;34.24;101960.47;5013495;28;97074;-80
2023/06/06 01:36:18;;;;;;;1.58;1.27;;;;;;;27.02;34.33;101958.56;5015023;28;97655;-80
2023/06/06 01:38:50;;;;;;;2.38;1.50;;;;;;;27.00;34.46;101960.66;5015994;28;96724;-80
2023/06/06 01:41:19;;;;;;;1.90;1.40;;;;;;;26.99;34.36;101958.94;5014844;28;99367;-80
2023/06/06 01:43:51;;;;;;;1.63;1.40;;;;;;;27.00;34.38;101960.66;5013917;28;96692;-80
2023/06/06 01:46:20;;;;;;;1.45;1.35;;;;;;;26.99;34.46;101953.44;5014513;28;96817;-80
2023/06/06 01:48:47;;;;;;;1.70;1.38;;;;;;;27.00;34.38;101957.06;5014395;28;97417;-80
2023/06/06 01:51:14;;;;;;;2.42;1.50;;;;;;;26.99;34.33;101958.94;4995275;28;98491;-80
2023/06/06 01:53:40;;;;;;;1.75;1.63;;;;;;;27.00;34.36;101957.06;5013741;28;96908;-80
2023/06/06 01:56:12;;;;;;;1.92;1.55;;;;;;;26.99;34.23;101958.94;5015746;28;97254;-80
2023/06/06 01:58:40;;;;;;;1.27;1.17;;;;;;;26.98;34.30;101960.00;4997117;28;97867;-80
2023/06/06 02:01:08;;;;;;;1.67;1.40;;;;;;;26.99;34.37;101963.63;5014825;28;97436;-80
2023/06/06 02:03:36;;;;;;;1.30;1.20;;;;;;;26.99;34.35;101958.09;4996969;28;96860;-80
2023/06/06 02:06:04;;;;;;;1.65;1.40;;;;;;;26.98;34.47;101959.16;4982081;28;97436;-80
2023/06/06 02:08:31;;;;;;;1.45;1.35;;;;;;;26.97;34.48;101957.41;5015169;28;97143;-80
2023/06/06 02:10:58;;;;;;;1.52;1.33;;;;;;;26.97;34.19;101958.25;5014605;28;98662;-80
2023/06/06 02:13:25;;;;;;;1.63;1.50;;;;;;;26.97;34.33;101955.50;5013843;28;96856;-80
2023/06/06 02:15:52;;;;;;;1.52;1.40;;;;;;;26.97;34.38;101952.75;5014855;28;97637;-80
2023/06/06 02:18:18;;;;;;;2.00;1.48;;;;;;;26.96;34.34;101956.53;5014443;28;96937;-80
2023/06/06 02:20:45;;;;;;;1.80;1.55;;;;;;;26.97;34.56;101951.88;5015017;28;96684;-80
2023/06/06 02:23:12;;;;;;;1.40;1.17;;;;;;;26.96;34.34;101953.78;5015422;28;97611;-80
2023/06/06 02:25:40;;;;;;;1.30;1.20;;;;;;;26.96;34.36;101951.03;5015447;28;96609;-80
2023/06/06 02:28:08;;;;;;;1.30;1.20;;;;;;;26.96;34.34;101952.94;5010171;28;98509;-80
2023/06/06 02:30:34;;;;;;;1.30;1.13;;;;;;;26.96;34.53;101955.69;4991811;28;100204;-80
2023/06/06 02:33:01;;;;;;;2.13;1.52;;;;;;;26.95;34.38;101953.97;4995204;28;96871;-80
2023/06/06 02:35:28;;;;;;;1.80;1.40;;;;;;;26.95;34.36;101952.06;4992832;28;97137;-80
2023/06/06 02:37:55;;;;;;;1.48;1.30;;;;;;;26.94;34.58;101955.88;5006693;28;99694;-80
2023/06/06 02:40:21;;;;;;;2.22;1.30;;;;;;;26.95;34.46;101953.97;5007855;28;98108;-79
2023/06/06 02:42:48;;;;;;;1.40;1.30;;;;;;;26.94;34.57;101950.38;5008365;28;97969;-80
2023/06/06 02:45:15;;;;;;;1.30;1.20;;;;;;;26.93;34.32;101951.41;5006521;28;97178;-79
2023/06/06 02:47:41;;;;;;;1.48;1.15;;;;;;;26.92;34.30;101952.47;5006991;28;100237;-81
2023/06/06 02:50:10;;;;;;;1.75;1.42;;;;;;;26.92;34.44;101947.78;5008054;28;99334;-80
2023/06/06 02:52:38;;;;;;;1.58;1.40;;;;;;;26.92;34.30;101957.97;5007678;28;97073;-80
2023/06/06 02:55:05;;;;;;;1.50;1.30;;;;;;;26.92;34.58;101952.47;4991608;28;96744;-79
2023/06/06 02:57:32;;;;;;;2.30;1.45;;;;;;;26.91;34.45;101957.13;5007822;28;99319;-81
2023/06/06 02:59:59;;;;;;;1.77;1.50;;;;;;;26.91;34.27;101962.63;5008317;28;99512;-80
2023/06/06 03:02:27;;;;;;;1.33;1.20;;;;;;;26.91;34.34;101956.25;5012726;28;97659;-80
2023/06/06 03:04:55;;;;;;;2.17;1.40;;;;;;;26.91;34.41;101964.53;5012764;28;97294;-80
2023/06/06 03:07:22;;;;;;;1.45;1.30;;;;;;;26.90;34.38;101949.88;4981198;28;97946;-80
2023/06/06 03:09:48;;;;;;;1.35;1.25;;;;;;;26.89;34.70;101958.34;4981131;28;99671;-80
2023/06/06 03:12:19;;;;;;;1.45;1.30;;;;;;;26.90;34.46;101960.06;5012042;28;97113;-80
2023/06/06 03:14:46;;;;;;;1.42;1.20;;;;;;;26.89;34.36;101959.19;5017915;28;97290;-80
2023/06/06 03:17:25;;;;;;;1.45;1.20;;;;;;;26.88;34.58;101959.38;5037693;28;99724;-80
2023/06/06 03:19:52;;;;;;;1.63;1.50;;;;;;;26.88;34.42;101965.75;5021235;28;98950;-81
2023/06/06 03:22:18;;;;;;;1.50;1.40;;;;;;;26.88;34.40;101960.25;5019864;28;96633;-80
2023/06/06 03:24:46;;;;;;;1.70;1.60;;;;;;;26.87;34.41;101957.69;5019283;28;96775;-80
2023/06/06 03:27:14;;;;;;;1.70;1.30;;;;;;;26.87;34.40;101961.28;4989559;28;99085;-80
2023/06/06 03:29:40;;;;;;;1.40;1.30;;;;;;;26.87;34.31;101961.28;5021813;28;96766;-81
2023/06/06 03:32:08;;;;;;;2.47;1.40;;;;;;;26.86;34.26;101962.34;5003776;28;96808;-80
2023/06/06 03:34:36;;;;;;;1.50;1.40;;;;;;;26.86;34.36;101964.25;5019841;28;97349;-80
2023/06/06 03:37:02;;;;;;;1.27;1.17;;;;;;;26.86;34.19;101965.09;5019263;28;97173;-80
2023/06/06 03:39:30;;;;;;;2.03;1.60;;;;;;;26.87;34.53;101971.47;5031937;28;96782;-80
2023/06/06 03:41:56;;;;;;;1.42;1.30;;;;;;;26.86;34.47;101964.25;4985619;28;96929;-81
2023/06/06 03:44:24;;;;;;;1.25;1.15;;;;;;;26.86;34.51;101969.75;5018137;28;97513;-80
2023/06/06 03:46:50;;;;;;;1.70;1.40;;;;;;;26.86;34.26;101967.84;5019274;28;96935;-81
2023/06/06 03:49:17;;;;;;;1.83;1.20;;;;;;;26.86;34.33;101965.09;5019417;28;97108;-80
2023/06/06 03:51:44;;;;;;;1.38;1.20;;;;;;;26.85;34.63;101968.91;5016344;28;96955;-80
2023/06/06 03:54:12;;;;;;;1.90;1.30;;;;;;;26.85;34.47;101962.53;4986930;28;97042;-80
2023/06/06 03:56:40;;;;;;;1.50;1.38;;;;;;;26.84;34.46;101969.09;4999987;28;97390;-80
2023/06/06 03:59:11;;;;;;;1.20;1.10;;;;;;;26.84;34.46;101964.44;5017453;28;97216;-80
2023/06/06 04:01:40;;;;;;;1.40;1.20;;;;;;;26.84;34.28;101971.84;5017013;28;97130;-80
2023/06/06 04:04:09;;;;;;;1.65;1.38;;;;;;;26.83;34.42;101967.38;5016726;28;97394;-80
2023/06/06 04:06:37;;;;;;;1.23;1.13;;;;;;;26.83;34.39;101967.38;5017468;28;97505;-81
2023/06/06 04:09:08;;;;;;;1.63;1.30;;;;;;;26.84;34.31;101969.09;5016352;28;100092;-80
2023/06/06 04:11:35;;;;;;;1.60;1.50;;;;;;;26.83;34.53;101968.22;4985490;28;97045;-80
2023/06/06 04:14:02;;;;;;;2.28;1.33;;;;;;;26.83;34.41;101970.97;5006349;28;98118;-80
2023/06/06 04:16:30;;;;;;;1.70;1.20;;;;;;;26.82;34.51;101966.53;5030672;28;97209;-80
2023/06/06 04:18:57;;;;;;;1.50;1.35;;;;;;;26.82;34.55;101962.91;5016176;28;99464;-81
2023/06/06 04:21:24;;;;;;;1.30;1.20;;;;;;;26.83;34.31;101970.97;5003774;28;96800;-80
2023/06/06 04:23:53;;;;;;;1.65;1.40;;;;;;;26.83;34.33;101970.13;5016653;28;96803;-80
2023/06/06 04:26:24;;;;;;;1.20;1.10;;;;;;;26.84;34.54;101967.19;5014986;28;99815;-80
2023/06/06 04:28:53;;;;;;;1.30;1.17;;;;;;;26.83;34.41;101973.75;4999001;28;99490;-80
2023/06/06 04:31:21;;;;;;;2.00;1.40;;;;;;;26.83;34.55;101970.97;5016676;28;97204;-80
2023/06/06 04:33:53;;;;;;;1.13;1.00;;;;;;;26.83;34.41;101970.97;5016232;28;98299;-81
2023/06/06 04:36:25;;;;;;;1.65;1.30;;;;;;;26.83;34.38;101970.13;5017203;28;99347;-80
2023/06/06 04:38:53;;;;;;;1.83;1.45;;;;;;;26.83;34.26;101964.63;5017126;28;99865;-80
2023/06/06 04:41:22;;;;;;;1.75;1.52;;;;;;;26.84;34.43;101971.84;5017351;28;96881;-80
2023/06/06 04:43:52;;;;;;;1.60;1.30;;;;;;;26.83;34.58;101975.66;5016684;28;96763;-81
2023/06/06 04:46:21;;;;;;;1.63;1.33;;;;;;;26.83;34.24;101968.22;5016395;28;97798;-80
2023/06/06 04:48:56;;;;;;;1.98;1.30;;;;;;;26.85;34.23;101966.13;5016601;28;97813;-81
2023/06/06 04:51:30;;;;;;;1.50;1.40;;;;;;;26.84;34.26;101966.31;5016599;28;96762;-81
2023/06/06 04:53:58;;;;;;;;;;;;;;;26.80;34.43;101965.00;5016473;28;96814;-80
2023/06/06 04:56:28;;;;;;;1.50;1.27;;;;;;;26.79;34.42;101974.31;5018489;28;98061;-80
2023/06/06 04:59:05;;;;;;;1.20;1.10;;;;;;;26.81;34.45;101969.47;5004745;28;100638;-80
2023/06/06 05:01:34;;;;;;;1.13;1.00;;;;;;;26.81;34.65;101969.47;5000622;28;96799;-80
2023/06/06 05:04:01;;;;;;;1.50;1.13;;;;;;;26.81;34.13;101964.81;5017528;28;96832;-80
2023/06/06 05:06:28;;;;;;;1.60;1.30;;;;;;;26.82;34.50;101974.78;5017992;28;97550;-80
2023/06/06 05:08:55;;;;;;;1.60;1.50;;;;;;;26.83;34.49;101976.50;5017953;28;96950;-81
2023/06/06 05:11:22;;;;;;;1.70;1.23;;;;;;;26.84;34.32;101971.84;5016601;28;96845;-81
2023/06/06 05:13:48;;;;;;;1.50;1.40;;;;;;;26.84;34.40;101975.44;5017072;28;97347;-80
2023/06/06 05:16:15;;;;;;;1.65;1.40;;;;;;;26.84;34.31;101978.22;5015058;28;97617;-80
2023/06/06 05:18:41;;;;;;;1.25;1.15;;;;;;;26.84;33.82;101980.97;5016934;28;96873;-80
2023/06/06 05:21:08;;;;;;;1.40;1.30;;;;;;;26.85;34.59;101979.06;5018020;28;97285;-80
2023/06/06 05:23:35;;;;;;;1.50;1.40;;;;;;;26.85;34.35;101979.06;5016305;28;96592;-80
2023/06/06 05:26:02;;;;;;;1.63;1.30;;;;;;;26.84;34.36;101971.84;4987582;28;100579;-80
2023/06/06 05:28:28;;;;;;;1.38;1.25;;;;;;;26.84;34.30;101972.69;5016168;28;99406;-80
2023/06/06 05:30:58;;;;;;;1.42;1.27;;;;;;;26.85;34.42;101977.16;5018088;28;96716;-81
2023/06/06 05:33:30;;;;;;;1.42;1.20;;;;;;;26.86;34.23;101972.50;5015822;28;96947;-80
2023/06/06 05:35:57;;;;;;;1.38;1.10;;;;;;;26.85;34.26;101973.56;5017695;28;97491;-80
2023/06/06 05:38:25;;;;;;;1.20;1.08;;;;;;;26.87;34.14;101976.97;5014789;28;98950;-80
2023/06/06 05:40:52;;;;;;;1.42;1.33;;;;;;;26.85;34.37;101968.91;5015843;28;97138;-80
2023/06/06 05:43:18;;;;;;;1.48;1.20;;;;;;;26.85;34.63;101974.41;5015929;28;96889;-80
2023/06/06 05:45:45;;;;;;;1.30;1.08;;;;;;;26.86;34.31;101978.03;5010764;28;98196;-79
2023/06/06 05:48:12;;;;;;;1.63;1.33;;;;;;;26.87;34.40;101985.25;5012831;28;96788;-80
2023/06/06 05:50:38;;;;;;;1.20;1.10;;;;;;;26.86;34.28;101978.03;5013580;28;97141;-81
2023/06/06 05:53:05;;;;;;;1.50;1.20;;;;;;;26.86;34.46;101983.53;5011959;28;97536;-80
2023/06/06 05:55:35;;;;;;;1.23;1.13;;;;;;;26.87;34.35;101982.50;5007721;28;97385;-80
2023/06/06 05:58:04;;;;;;;1.52;1.40;;;;;;;26.87;34.37;101982.50;5011877;28;97134;-80
2023/06/06 06:00:32;;;;;;;1.40;1.30;;;;;;;26.87;34.26;101982.50;5012275;28;97075;-80
2023/06/06 06:03:00;;;;;;;1.50;1.40;;;;;;;26.87;34.31;101988.00;5012349;28;97788;-80
2023/06/06 06:05:28;;;;;;;1.50;1.10;;;;;;;26.86;34.43;101981.63;5011426;28;96618;-80
2023/06/06 06:07:59;;;;;;;1.20;1.05;;;;;;;26.87;34.41;101979.72;5010050;28;96684;-80
2023/06/06 06:10:30;;;;;;;1.40;1.13;;;;;;;26.88;34.36;101978.69;5012257;28;96728;-80
2023/06/06 06:12:58;;;;;;;0.95;0.85;;;;;;;26.87;34.37;101976.97;4981734;28;96816;-80
2023/06/06 06:15:25;;;;;;;1.35;1.23;;;;;;;26.87;34.30;101980.59;5011828;28;99587;-80
2023/06/06 06:17:51;;;;;;;1.15;1.05;;;;;;;26.87;34.27;101975.06;5009971;28;97931;-80
2023/06/06 06:20:19;;;;;;;1.63;1.30;;;;;;;26.88;34.17;101978.69;5009172;28;96810;-80
2023/06/06 06:22:47;;;;;;;0.90;0.90;;;;;;;26.87;34.06;101977.84;5014107;28;96865;-80
2023/06/06 06:25:14;;;;;;;1.70;1.40;;;;;;;26.87;34.34;101983.34;5013012;28;96997;-80
2023/06/06 06:27:42;;;;;;;1.30;1.20;;;;;;;26.87;34.47;101988.84;5012233;28;97793;-80
2023/06/06 06:30:09;;;;;;;1.58;1.10;;;;;;;26.88;34.17;101984.19;5012597;28;96896;-80
2023/06/06 06:32:37;;;;;;;1.25;1.10;;;;;;;26.88;34.22;101986.97;5014199;28;96730;-80
2023/06/06 06:35:08;;;;;;;1.30;1.20;;;;;;;26.88;34.45;101986.97;5008962;28;98009;-80
2023/06/06 06:37:39;;;;;;;1.75;1.20;;;;;;;26.88;34.22;101996.09;5015788;28;97960;-80
2023/06/06 06:40:11;;;;;;;1.20;1.10;;;;;;;26.87;34.24;101994.38;5017065;28;97213;-80
2023/06/06 06:42:43;;;;;;;1.25;1.10;;;;;;;26.88;34.13;101993.31;5016705;28;97213;-80
2023/06/06 06:45:39;;;;;;;1.30;1.08;;;;;;;26.86;34.42;101987.16;5008094;28;98424;-80
2023/06/06 06:48:06;;;;;;;1.20;1.10;;;;;;;26.87;34.25;101990.75;5012588;28;96889;-80
2023/06/06 06:50:32;;;;;;;1.60;1.25;;;;;;;26.86;34.48;101994.56;5011527;28;97174;-79
2023/06/06 06:53:02;;;;;;;1.33;1.20;;;;;;;26.88;33.77;101995.22;5014228;28;96917;-80
2023/06/06 06:55:28;;;;;;;1.10;1.00;;;;;;;26.88;34.39;101996.09;5013021;28;97287;-80
2023/06/06 06:57:56;;;;;;;1.58;1.10;;;;;;;26.89;34.34;101994.19;5012914;28;97336;-80
2023/06/06 07:00:24;;;;;;;1.60;1.10;;;;;;;26.89;34.19;101996.94;5014424;28;96800;-80
2023/06/06 07:02:54;;;;;;;1.45;1.20;;;;;;;26.88;34.56;101996.09;5011004;28;96735;-80
2023/06/06 07:05:21;;;;;;;1.58;1.30;;;;;;;26.88;34.28;101996.09;5011353;28;99581;-79
2023/06/06 07:07:53;;;;;;;1.65;1.02;;;;;;;26.89;34.58;101991.44;5008933;28;99262;-79
2023/06/06 07:10:23;;;;;;;1.50;1.20;;;;;;;26.88;34.19;101993.31;5012358;28;96722;-79
2023/06/06 07:12:51;;;;;;;2.30;1.00;;;;;;;26.89;34.39;101994.19;5012671;28;96629;-79
2023/06/06 07:15:22;;;;;;;1.55;1.20;;;;;;;26.89;34.17;101997.78;4994147;28;99980;-79
2023/06/06 07:17:50;;;;;;;1.30;1.20;;;;;;;26.90;34.21;102001.41;5010435;28;100530;-77
2023/06/06 07:20:20;;;;;;;2.00;1.23;;;;;;;26.90;34.29;102004.16;5010448;28;97035;-79
2023/06/06 07:22:47;;;;;;;2.00;1.42;;;;;;;26.90;34.30;102004.16;5012311;28;96896;-79
2023/06/06 07:25:16;;;;;;;1.42;1.10;;;;;;;26.90;34.18;102005.03;5011514;28;96873;-80
2023/06/06 07:27:43;;;;;;;1.38;1.10;;;;;;;26.90;34.29;102001.41;4995167;28;98287;-80
2023/06/06 07:30:14;;;;;;;1.40;1.10;;;;;;;26.90;34.29;101988.47;5012336;28;96901;-80
2023/06/06 07:32:42;;;;;;;1.15;1.05;;;;;;;26.90;34.29;101988.47;5013351;28;96723;-80
2023/06/06 07:35:10;;;;;;;1.55;1.27;;;;;;;26.90;33.93;101985.72;5013923;28;96605;-80
2023/06/06 07:37:38;;;;;;;1.45;1.20;;;;;;;26.90;34.29;101987.63;5013450;28;97091;-80
2023/06/06 07:40:07;;;;;;;1.60;1.13;;;;;;;26.91;34.22;101986.59;5013579;28;96925;-82
2023/06/06 07:42:35;;;;;;;1.30;1.10;;;;;;;26.91;34.34;101983.81;5012758;28;97389;-80
2023/06/06 07:45:03;;;;;;;1.15;1.00;;;;;;;26.91;34.62;101981.06;5012149;28;98059;-80
2023/06/06 07:47:30;;;;;;;2.92;1.35;;;;;;;26.91;34.12;101986.59;5014672;28;96908;-80
2023/06/06 07:49:57;;;;;;;1.40;1.00;;;;;;;26.92;34.29;101988.28;5002749;28;96914;-80
2023/06/06 07:52:25;;;;;;;2.35;1.05;;;;;;;26.91;34.40;101987.44;5016612;28;97467;-80
2023/06/06 07:54:51;;;;;;;1.55;1.25;;;;;;;26.91;34.44;101981.06;5011668;28;98604;-80
2023/06/06 07:57:19;;;;;;;1.50;1.00;;;;;;;26.91;34.14;101973.66;5013354;28;99091;-80
2023/06/06 07:59:46;;;;;;;1.50;1.13;;;;;;;26.92;34.17;101982.78;5007929;28;96782;-79
2023/06/06 08:02:14;;;;;;;1.58;1.30;;;;;;;26.91;34.28;101979.16;5008964;28;96734;-79
2023/06/06 08:04:45;;;;;;;1.30;1.00;;;;;;;26.92;34.32;101978.13;5009637;28;97805;-79
2023/06/06 08:07:15;;;;;;;2.35;1.08;;;;;;;26.92;34.35;101983.63;5009566;28;97137;-79
2023/06/06 08:09:42;;;;;;;1.52;1.42;;;;;;;26.92;34.25;101980.03;5008568;28;97327;-79
2023/06/06 08:12:11;;;;;;;1.10;1.00;;;;;;;26.92;34.33;101986.41;5010551;28;96888;-78
2023/06/06 08:14:38;;;;;;;1.35;1.20;;;;;;;26.91;34.32;101976.41;5010216;28;98259;-79
2023/06/06 08:17:05;;;;;;;1.67;1.33;;;;;;;26.93;34.20;101976.22;4992562;28;98527;-78
2023/06/06 08:19:32;;;;;;;1.33;1.23;;;;;;;26.93;34.13;101981.72;5011518;28;96970;-80
2023/06/06 08:22:01;;;;;;;1.85;1.27;;;;;;;26.93;34.14;101970.72;5011561;28;97067;-79
2023/06/06 08:24:28;;;;;;;1.30;1.20;;;;;;;26.93;34.38;101973.47;5008992;28;96873;-79
2023/06/06 08:26:55;;;;;;;2.28;1.20;;;;;;;26.92;33.80;101980.88;5011853;28;96654;-80
2023/06/06 08:29:22;;;;;;;2.70;1.27;;;;;;;26.93;34.26;101973.47;5009696;28;96950;-79
2023/06/06 08:31:49;;;;;;;1.38;1.27;;;;;;;26.93;34.20;101973.47;5011425;28;96846;-79
2023/06/06 08:34:15;;;;;;;1.45;1.20;;;;;;;26.93;34.15;101970.72;5010669;28;97715;-80
2023/06/06 08:36:42;;;;;;;1.30;1.20;;;;;;;26.93;34.11;101970.72;5008887;28;99455;-80
2023/06/06 08:39:08;;;;;;;1.52;1.40;;;;;;;26.92;34.17;101969.84;5010682;28;96678;-79
2023/06/06 08:41:42;;;;;;;1.42;1.30;;;;;;;26.94;34.23;101968.81;5010592;28;97032;-79
2023/06/06 08:44:09;;;;;;;1.30;1.10;;;;;;;26.93;34.16;101967.94;5010107;28;96570;-79
2023/06/06 08:46:38;;;;;;;1.70;1.30;;;;;;;26.93;34.26;101970.72;5009343;28;98061;-79
2023/06/06 08:49:05;;;;;;;1.92;1.40;;;;;;;26.93;34.06;101967.94;5010191;28;96976;-80
2023/06/06 08:51:31;;;;;;;1.30;1.20;;;;;;;26.94;34.26;101968.81;5009868;28;97606;-80
2023/06/06 08:54:00;;;;;;;1.65;1.10;;;;;;;26.94;34.25;101964.16;5009545;28;96650;-79
2023/06/06 08:56:27;;;;;;;1.70;1.30;;;;;;;26.94;34.15;101969.66;4997966;28;97610;-79
2023/06/06 08:58:54;;;;;;;2.55;1.30;;;;;;;26.94;34.29;101964.16;5008797;28;96750;-80
2023/06/06 09:01:22;;;;;;;1.30;1.20;;;;;;;26.94;34.27;101961.38;5009136;28;96883;-81
2023/06/06 09:03:53;;;;;;;1.60;1.20;;;;;;;26.94;34.22;101958.63;5008755;28;98262;-79
2023/06/06 09:06:20;;;;;;;1.65;1.23;;;;;;;26.94;34.20;101964.16;5010673;28;96817;-79
2023/06/06 09:08:54;;;;;;;2.00;1.23;;;;;;;26.95;34.11;101963.09;5009527;28;96759;-79
2023/06/06 09:11:22;;;;;;;1.75;1.50;;;;;;;26.94;34.04;101964.16;5009951;28;96614;-79
2023/06/06 09:13:49;;;;;;;2.17;1.55;;;;;;;26.94;34.22;101966.06;4991577;28;99069;-79
2023/06/06 09:16:17;;;;;;;1.52;1.35;;;;;;;26.94;34.17;101964.16;5010836;28;97566;-79
2023/06/06 09:18:48;;;;;;;1.75;1.40;;;;;;;26.95;34.20;101956.72;5006519;28;96661;-80
2023/06/06 09:21:15;;;;;;;1.63;1.30;;;;;;;26.94;34.34;101961.38;5010411;28;96601;-79
2023/06/06 09:23:42;;;;;;;1.48;1.20;;;;;;;26.95;34.11;101968.63;5010050;28;97141;-80
2023/06/06 09:26:22;;;;;;;1.55;1.40;;;;;;;26.96;34.19;101966.72;5008368;28;98080;-80
2023/06/06 09:28:48;;;;;;;1.48;1.38;;;;;;;26.94;34.20;101960.53;5010242;28;96754;-79
2023/06/06 09:31:37;;;;;;;1.67;1.42;;;;;;;26.95;34.24;101963.09;4992514;28;97012;-80
2023/06/06 09:34:08;;;;;;;2.08;1.33;;;;;;;26.95;34.27;101968.63;4979511;28;98071;-76
2023/06/06 09:36:38;;;;;;;1.58;1.33;;;;;;;26.95;34.14;101957.59;5008998;28;96720;-75
2023/06/06 09:39:09;;;;;;;2.45;1.52;;;;;;;26.96;34.05;101959.31;5008505;28;96830;-75
2023/06/06 09:41:40;;;;;;;2.30;1.42;;;;;;;26.96;33.83;101934.50;5004425;28;97171;-76
2023/06/06 09:44:21;;;;;;;1.67;1.45;;;;;;;26.96;34.09;101955.69;5007262;28;97558;-72
2023/06/06 09:46:59;;;;;;;1.80;1.20;;;;;;;26.96;34.24;101948.28;5007749;28;98607;-74
2023/06/06 09:49:36;;;;;;;8.57;4.03;;;;;;;26.95;34.20;101949.31;5009507;28;96951;-73
2023/06/06 09:52:04;;;;;;;9.60;4.57;;;;;;;26.95;34.19;101951.22;5009083;28;96772;-76
2023/06/06 09:54:32;;;;;;;20.05;7.88;;;;;;;26.95;34.27;101946.56;5008885;28;97660;-71
2023/06/06 09:56:59;;;;;;;28.23;9.25;;;;;;;26.96;34.20;101942.75;5010334;28;97483;-74
2023/06/06 09:59:29;;;;;;;24.45;8.85;;;;;;;26.99;34.37;101953.44;5007636;28;97336;-76
2023/06/06 10:02:05;;;;;;;27.17;8.60;;;;;;;27.00;34.43;101946.88;5008464;28;97034;-75
2023/06/06 10:04:33;;;;;;;19.33;7.72;;;;;;;27.01;34.40;101943.06;5008745;28;97810;-76
2023/06/06 10:07:05;;;;;;;20.55;7.70;;;;;;;27.03;34.36;101940.97;5010083;28;96581;-75
2023/06/06 10:09:33;;;;;;;22.20;8.02;;;;;;;27.05;34.50;101941.66;5013190;28;96947;-76
2023/06/06 10:12:00;;;;;;;19.70;6.82;;;;;;;27.07;34.29;101946.97;5012437;28;96734;-76
2023/06/06 10:14:28;;;;;;;19.45;7.05;;;;;;;27.08;34.40;101946.78;5010992;28;98227;-76
2023/06/06 10:16:55;;;;;;;16.38;6.13;;;;;;;27.10;34.38;101941.06;5012857;28;97075;-76
2023/06/06 10:19:24;;;;;;;13.93;6.72;;;;;;;27.10;34.27;101936.41;5010591;28;96849;-77
2023/06/06 10:21:52;;;;;;;15.95;6.57;;;;;;;27.11;34.17;101940.03;4977253;28;97738;-76
2023/06/06 10:24:19;;;;;;;12.82;6.20;;;;;;;27.12;34.27;101939.84;5010839;28;100984;-76
2023/06/06 10:27:27;;;;;;;10.40;5.20;;;;;;;27.14;34.23;101940.50;5012789;28;96991;-76
2023/06/06 10:30:19;;;;;;;13.43;5.82;;;;;;;27.13;34.20;101938.78;5012642;28;96696;-76
2023/06/06 10:32:56;;;;;;;12.35;6.10;;;;;;;27.13;34.21;101922.25;5013237;28;97060;-76
2023/06/06 10:35:24;;;;;;;11.18;5.45;;;;;;;27.13;34.61;101930.53;5012992;28;98182;-76
2023/06/06 10:38:01;;;;;;;12.15;4.93;;;;;;;27.16;34.33;101926.53;5011895;28;100298;-76
2023/06/06 10:40:40;;;;;;;11.93;5.32;;;;;;;27.16;34.17;101929.28;5007699;28;97086;-77
2023/06/06 10:43:07;;;;;;;11.75;5.60;;;;;;;27.15;34.09;101917.38;5012680;28;97028;-76
2023/06/06 10:45:50;;;;;;;11.95;5.50;;;;;;;27.15;34.30;101920.16;5010972;28;96836;-76
2023/06/06 10:48:16;;;;;;;10.45;4.95;;;;;;;27.16;34.43;101921.88;5012989;28;96914;-76
2023/06/06 10:50:53;;;;;;;11.07;5.00;;;;;;;27.18;34.31;101918.91;5012943;28;96737;-76
2023/06/06 10:53:20;;;;;;;10.98;5.10;;;;;;;27.17;34.24;101923.56;5004690;28;96798;-76
2023/06/06 10:55:46;;;;;;;8.77;4.65;;;;;;;27.18;34.47;101914.25;5010874;28;97864;-75
2023/06/06 10:58:33;;;;;;;11.70;5.18;;;;;;;27.21;34.05;101926.81;5012146;28;96838;-75
2023/06/06 11:01:05;;;;;;;9.77;5.28;;;;;;;27.20;34.16;101922.34;5012118;28;96650;-75
2023/06/06 11:03:40;;;;;;;9.07;4.80;;;;;;;27.20;34.33;101920.44;5009626;28;97549;-76
2023/06/06 11:06:12;;;;;;;11.35;4.50;;;;;;;27.21;34.34;101924.03;5010992;28;96890;-77
2023/06/06 11:08:56;;;;;;;8.60;4.25;;;;;;;27.20;34.40;101917.66;5010806;28;96772;-76
2023/06/06 11:11:25;;;;;;;9.40;4.55;;;;;;;27.20;34.13;101916.81;5007461;28;96891;-75
2023/06/06 11:13:59;;;;;;;8.07;4.53;;;;;;;27.22;34.16;101914.72;5007882;28;97071;-75
2023/06/06 11:16:43;;;;;;;10.13;4.60;;;;;;;27.22;34.35;101911.97;5011237;28;97304;-75
2023/06/06 11:19:19;;;;;;;10.90;5.63;;;;;;;27.22;34.23;101921.09;4997985;28;96789;-75
2023/06/06 11:21:50;;;;;;;6.55;4.47;;;;;;;27.21;34.40;101913.88;5010283;28;97306;-76
2023/06/06 11:24:21;;;;;;;8.70;4.30;;;;;;;27.22;34.28;101914.72;5009516;28;97166;-75
2023/06/06 11:26:51;;;;;;;10.52;4.35;;;;;;;27.22;34.27;101914.72;5011866;28;96982;-75
2023/06/06 11:29:18;;;;;;;8.00;4.05;;;;;;;27.22;34.20;101907.31;5008871;28;99225;-76
2023/06/06 11:31:45;;;;;;;8.15;4.13;;;;;;;27.23;34.32;101900.75;5011220;28;96856;-77
2023/06/06 11:34:14;;;;;;;7.47;4.65;;;;;;;27.24;34.38;101907.09;5007374;28;96861;-77